Time;durP1;ratioP1;P1;durP2;ratioP2;P2;SDS_P1;SDS_P2;PMS_P1;PMS_P2;Temp;Humidity;BMP_temperature;BMP_pressure;BME280_temperature;BME280_humidity;BME280_pressure;Samples;Min_cycle;Max_cycle;Signal;HPM_P1;HPM_P2
2023/07/31 00:00:27;;;;;;;2.07;1.60;;;18.80;99.90;;;;;;4987252;28;20476;-71
2023/07/31 00:02:53;;;;;;;4.60;1.90;;;18.70;99.90;;;;;;4985421;28;20233;-71
2023/07/31 00:05:19;;;;;;;2.37;1.90;;;18.70;99.90;;;;;;4984387;28;20351;-71
2023/07/31 00:07:45;;;;;;;3.67;1.80;;;18.70;99.90;;;;;;4987996;28;20486;-72
2023/07/31 00:10:10;;;;;;;2.43;1.83;;;18.80;99.90;;;;;;4969335;28;20298;-70
2023/07/31 00:12:38;;;;;;;4.73;3.00;;;18.70;99.90;;;;;;4988078;28;20235;-71
2023/07/31 00:15:04;;;;;;;2.00;1.70;;;18.70;99.90;;;;;;4981205;28;20225;-71
2023/07/31 00:17:30;;;;;;;2.87;1.90;;;18.70;99.90;;;;;;4986012;28;20482;-70
2023/07/31 00:19:56;;;;;;;2.60;1.83;;;18.70;99.90;;;;;;4983895;28;20482;-71
2023/07/31 00:22:21;;;;;;;7.53;2.53;;;18.80;99.90;;;;;;4986304;28;20959;-69
2023/07/31 00:24:47;;;;;;;3.00;2.30;;;18.80;99.90;;;;;;4984800;28;20749;-71
2023/07/31 00:27:12;;;;;;;2.13;1.60;;;18.90;99.90;;;;;;4984621;28;20229;-71
2023/07/31 00:29:38;;;;;;;4.73;1.57;;;18.90;99.90;;;;;;4984734;28;20338;-71
2023/07/31 00:32:04;;;;;;;6.37;1.97;;;18.90;99.90;;;;;;4981725;28;20210;-71
2023/07/31 00:34:30;;;;;;;1.83;1.73;;;18.90;99.90;;;;;;4987679;28;20225;-71
2023/07/31 00:36:55;;;;;;;3.97;2.13;;;18.80;99.90;;;;;;5001417;28;20467;-71
2023/07/31 00:39:21;;;;;;;2.00;1.53;;;18.80;99.90;;;;;;4985978;28;20213;-71
2023/07/31 00:41:47;;;;;;;4.87;2.90;;;18.70;99.90;;;;;;4986158;28;20290;-71
2023/07/31 00:44:12;;;;;;;3.10;2.20;;;18.80;99.90;;;;;;4985979;28;20809;-69
2023/07/31 00:46:38;;;;;;;2.03;1.80;;;18.90;99.90;;;;;;4985408;28;20227;-71
2023/07/31 00:49:05;;;;;;;4.13;2.20;;;18.80;99.90;;;;;;4967889;28;20345;-71
2023/07/31 00:51:31;;;;;;;2.27;2.07;;;18.80;99.90;;;;;;5003460;28;20994;-71
2023/07/31 00:53:57;;;;;;;4.27;2.50;;;18.70;99.90;;;;;;4982721;28;20591;-71
2023/07/31 00:56:25;;;;;;;6.00;2.10;;;18.80;99.90;;;;;;4986486;28;20296;-72
2023/07/31 00:58:51;;;;;;;2.37;2.10;;;18.80;99.90;;;;;;4985198;28;21072;-71
2023/07/31 01:01:16;;;;;;;3.80;1.80;;;18.90;99.90;;;;;;4982202;28;20599;-71
2023/07/31 01:03:42;;;;;;;3.00;1.73;;;18.80;99.90;;;;;;4986057;28;20233;-70
2023/07/31 01:06:17;;;;;;;2.50;1.93;;;18.70;99.90;;;;;;4999536;28;20231;-70
2023/07/31 01:09:10;;;;;;;5.37;2.07;;;18.50;99.90;;;;;;4986635;28;20498;-70
2023/07/31 01:11:50;;;;;;;2.07;1.87;;;18.50;99.90;;;;;;4984150;28;20481;-70
2023/07/31 01:14:16;;;;;;;2.20;1.63;;;18.50;99.90;;;;;;4981780;28;20489;-71
2023/07/31 01:16:41;;;;;;;2.30;1.90;;;18.50;99.90;;;;;;4987041;28;20480;-71
2023/07/31 01:19:09;;;;;;;3.97;2.23;;;18.50;99.90;;;;;;4999605;28;20224;-71
2023/07/31 01:21:46;;;;;;;2.20;1.80;;;18.50;99.90;;;;;;5002466;28;20221;-71
2023/07/31 01:24:18;;;;;;;2.80;2.10;;;18.50;99.90;;;;;;4983629;28;20488;-71
2023/07/31 01:26:47;;;;;;;4.97;2.10;;;18.50;99.90;;;;;;4984928;28;20475;-71
2023/07/31 01:29:34;;;;;;;2.60;1.90;;;18.50;99.90;;;;;;4998111;28;20476;-70
2023/07/31 01:32:03;;;;;;;2.10;1.90;;;18.40;99.90;;;;;;4980752;28;20482;-71
2023/07/31 01:34:29;;;;;;;1.77;1.57;;;18.40;99.90;;;;;;5002794;28;21083;-71
2023/07/31 01:36:56;;;;;;;5.70;2.23;;;18.40;99.90;;;;;;4988288;28;20598;-71
2023/07/31 01:39:22;;;;;;;7.70;2.70;;;18.50;99.90;;;;;;4973309;28;20468;-71
2023/07/31 01:41:48;;;;;;;3.77;2.17;;;18.60;99.90;;;;;;4982771;28;20480;-71
2023/07/31 01:44:14;;;;;;;1.60;1.50;;;18.50;99.90;;;;;;4982188;28;20356;-71
2023/07/31 01:46:40;;;;;;;3.00;1.80;;;18.40;99.90;;;;;;5000360;28;20306;-70
2023/07/31 01:49:06;;;;;;;5.50;2.00;;;18.40;99.90;;;;;;4982377;28;20215;-71
2023/07/31 01:51:34;;;;;;;2.90;2.00;;;18.40;99.90;;;;;;4987403;28;20226;-70
2023/07/31 01:54:01;;;;;;;3.57;1.90;;;18.50;99.90;;;;;;4981208;28;20464;-70
2023/07/31 01:56:26;;;;;;;2.13;1.93;;;18.40;99.90;;;;;;4984369;28;20467;-71
2023/07/31 01:58:52;;;;;;;2.03;1.80;;;18.40;99.90;;;;;;4987082;28;21598;-70
2023/07/31 02:01:18;;;;;;;2.83;2.10;;;18.40;99.90;;;;;;4965016;28;20275;-70
2023/07/31 02:03:44;;;;;;;2.80;2.03;;;18.50;99.90;;;;;;4984477;28;20224;-71
2023/07/31 02:06:10;;;;;;;4.03;2.10;;;18.50;99.90;;;;;;4978132;28;20488;-70
2023/07/31 02:08:36;;;;;;;4.07;2.20;;;18.40;99.90;;;;;;4983674;28;20217;-70
2023/07/31 02:11:01;;;;;;;2.90;2.13;;;18.40;99.90;;;;;;4979149;28;20224;-71
2023/07/31 02:13:27;;;;;;;7.03;2.10;;;18.50;99.90;;;;;;4985312;28;20256;-70
2023/07/31 02:15:53;;;;;;;4.40;2.33;;;18.50;99.90;;;;;;4981796;28;20221;-70
2023/07/31 02:18:19;;;;;;;2.83;2.00;;;18.50;99.90;;;;;;4977998;28;20236;-69
2023/07/31 02:20:50;;;;;;;2.03;1.90;;;18.50;99.90;;;;;;4984238;28;20484;-70
2023/07/31 02:23:15;;;;;;;2.47;2.10;;;18.60;99.90;;;;;;4995208;28;20240;-70
2023/07/31 02:25:43;;;;;;;4.90;2.40;;;18.60;99.90;;;;;;4983035;28;20467;-70
2023/07/31 02:28:08;;;;;;;4.13;2.40;;;18.60;99.90;;;;;;4980191;28;20459;-71
2023/07/31 02:30:34;;;;;;;3.13;2.20;;;18.40;99.90;;;;;;4998203;28;20896;-72
2023/07/31 02:32:59;;;;;;;4.27;2.13;;;18.50;99.90;;;;;;4980357;28;20334;-71
2023/07/31 02:35:25;;;;;;;3.70;2.53;;;18.50;99.90;;;;;;4986397;28;20903;-70
2023/07/31 02:37:51;;;;;;;3.00;2.20;;;18.50;99.90;;;;;;4985460;28;20490;-70
2023/07/31 02:40:18;;;;;;;4.50;3.43;;;18.50;99.90;;;;;;4965681;28;20357;-71
2023/07/31 02:42:44;;;;;;;5.00;3.00;;;18.40;99.90;;;;;;4985944;28;20501;-70
2023/07/31 02:45:11;;;;;;;2.17;1.97;;;18.40;99.90;;;;;;4998273;28;20212;-70
2023/07/31 02:47:37;;;;;;;2.60;2.33;;;18.30;99.90;;;;;;4986375;28;20471;-70
2023/07/31 02:50:03;;;;;;;4.20;2.80;;;18.30;99.90;;;;;;4985177;28;20793;-70
2023/07/31 02:52:29;;;;;;;4.07;2.70;;;18.20;99.90;;;;;;4990034;28;20221;-69
2023/07/31 02:54:55;;;;;;;2.57;2.23;;;18.20;99.90;;;;;;4989498;28;20586;-70
2023/07/31 02:57:20;;;;;;;9.43;3.20;;;18.30;99.90;;;;;;4986346;28;20317;-70
2023/07/31 02:59:46;;;;;;;3.90;2.07;;;18.40;99.90;;;;;;4990081;28;20217;-70
2023/07/31 03:02:12;;;;;;;3.57;2.40;;;18.40;99.90;;;;;;4985512;28;20715;-71
2023/07/31 03:04:38;;;;;;;2.77;1.70;;;18.40;99.90;;;;;;4988323;28;20815;-70
2023/07/31 03:07:05;;;;;;;2.90;1.90;;;18.40;99.90;;;;;;4985163;28;20478;-70
2023/07/31 03:09:30;;;;;;;2.37;1.90;;;18.50;99.90;;;;;;5006088;28;20494;-71
2023/07/31 03:11:56;;;;;;;2.90;2.47;;;18.40;99.90;;;;;;4989044;28;20472;-71
2023/07/31 03:14:21;;;;;;;2.23;1.90;;;18.30;99.90;;;;;;4991629;28;20212;-71
2023/07/31 03:16:48;;;;;;;3.60;2.30;;;18.20;99.90;;;;;;4990631;28;20619;-70
2023/07/31 03:19:13;;;;;;;2.43;2.03;;;18.20;99.90;;;;;;4986053;28;20252;-71
2023/07/31 03:21:39;;;;;;;2.30;2.10;;;18.20;99.90;;;;;;4991054;28;21069;-71
2023/07/31 03:24:05;;;;;;;2.33;1.97;;;18.30;99.90;;;;;;5000383;28;20227;-70
2023/07/31 03:26:32;;;;;;;4.80;2.33;;;18.30;99.90;;;;;;4989813;28;20399;-70
2023/07/31 03:28:57;;;;;;;3.43;2.30;;;18.20;99.90;;;;;;4963178;28;20307;-70
2023/07/31 03:31:23;;;;;;;2.83;2.17;;;18.30;99.90;;;;;;4989138;28;20611;-70
2023/07/31 03:33:49;;;;;;;2.67;2.27;;;18.30;99.90;;;;;;4974251;28;20255;-70
2023/07/31 03:36:14;;;;;;;3.23;2.17;;;18.20;99.90;;;;;;4987455;28;20667;-70
2023/07/31 03:38:40;;;;;;;3.97;2.30;;;18.20;99.90;;;;;;4990932;28;20239;-70
2023/07/31 03:41:06;;;;;;;3.57;2.13;;;18.30;99.90;;;;;;4987471;28;20248;-70
2023/07/31 03:43:33;;;;;;;3.70;2.50;;;18.20;99.90;;;;;;4993535;28;20482;-70
2023/07/31 03:46:00;;;;;;;4.77;2.70;;;18.20;99.90;;;;;;4989007;28;20236;-70
2023/07/31 03:48:26;;;;;;;3.50;2.40;;;18.20;99.90;;;;;;4994475;28;20914;-70
2023/07/31 03:50:52;;;;;;;2.47;2.27;;;18.20;99.90;;;;;;4991393;28;20490;-70
2023/07/31 03:53:17;;;;;;;7.20;3.10;;;18.10;99.90;;;;;;5004593;28;20340;-69
2023/07/31 03:55:43;;;;;;;3.10;2.00;;;18.10;99.90;;;;;;4993000;28;20710;-69
2023/07/31 03:58:08;;;;;;;5.17;3.30;;;18.00;99.90;;;;;;4986626;28;20287;-69
2023/07/31 04:00:34;;;;;;;4.73;2.83;;;18.00;99.90;;;;;;4990988;28;20229;-70
2023/07/31 04:03:00;;;;;;;2.60;2.17;;;18.10;99.90;;;;;;5004982;28;20219;-71
2023/07/31 04:05:25;;;;;;;2.70;1.87;;;18.10;99.90;;;;;;4990773;28;20225;-71
2023/07/31 04:07:51;;;;;;;4.33;2.20;;;18.10;99.90;;;;;;4991282;28;20308;-71
2023/07/31 04:10:17;;;;;;;3.30;2.00;;;18.10;99.90;;;;;;5004397;28;20260;-70
2023/07/31 04:12:42;;;;;;;3.43;2.00;;;18.10;99.90;;;;;;4990323;28;20324;-70
2023/07/31 04:15:08;;;;;;;4.73;1.90;;;18.20;99.90;;;;;;4987540;28;21043;-69
2023/07/31 04:17:34;;;;;;;2.73;2.17;;;18.30;99.90;;;;;;4990796;28;20225;-70
2023/07/31 04:20:00;;;;;;;2.60;2.40;;;18.20;99.90;;;;;;4987531;28;20490;-69
2023/07/31 04:22:25;;;;;;;7.60;2.33;;;18.20;99.90;;;;;;4976753;28;20236;-70
2023/07/31 04:24:51;;;;;;;5.53;3.00;;;18.20;99.90;;;;;;4991748;28;20223;-70
2023/07/31 04:27:17;;;;;;;2.97;2.67;;;18.20;99.90;;;;;;4988370;28;20290;-70
2023/07/31 04:29:44;;;;;;;3.43;2.63;;;18.20;99.90;;;;;;4991466;28;20251;-70
2023/07/31 04:32:09;;;;;;;5.83;2.90;;;18.30;99.90;;;;;;4986049;28;20276;-70
2023/07/31 04:34:35;;;;;;;2.73;2.40;;;18.20;99.90;;;;;;4992316;28;20471;-71
2023/07/31 04:37:01;;;;;;;3.13;1.93;;;18.20;99.90;;;;;;4986695;28;20929;-70
2023/07/31 04:39:26;;;;;;;3.90;2.33;;;18.20;99.90;;;;;;4989548;28;20989;-70
2023/07/31 04:41:52;;;;;;;3.77;2.43;;;18.30;99.90;;;;;;4975669;28;20465;-70
2023/07/31 04:44:18;;;;;;;6.63;2.33;;;18.30;99.90;;;;;;4988301;28;21199;-69
2023/07/31 04:46:43;;;;;;;5.53;2.37;;;18.20;99.90;;;;;;4991657;28;20792;-70
2023/07/31 04:49:09;;;;;;;3.23;2.20;;;18.20;99.90;;;;;;4989048;28;20724;-70
2023/07/31 04:51:34;;;;;;;2.50;1.80;;;18.20;99.90;;;;;;5009459;28;21690;-70
2023/07/31 04:54:00;;;;;;;3.40;2.47;;;18.20;99.90;;;;;;4988392;28;20228;-69
2023/07/31 04:56:26;;;;;;;4.10;2.67;;;18.10;99.90;;;;;;4990586;28;20322;-69
2023/07/31 04:58:51;;;;;;;5.23;2.43;;;18.10;99.90;;;;;;4976941;28;20235;-70
2023/07/31 05:01:17;;;;;;;4.57;2.60;;;18.00;99.90;;;;;;4984593;28;20256;-70
2023/07/31 05:03:43;;;;;;;4.10;2.80;;;18.10;99.90;;;;;;4993365;28;20318;-70
2023/07/31 05:06:08;;;;;;;4.50;2.57;;;18.00;99.90;;;;;;4968799;28;20217;-70
2023/07/31 05:08:34;;;;;;;4.97;2.73;;;17.90;99.90;;;;;;4992614;28;20991;-70
2023/07/31 05:11:00;;;;;;;5.17;2.47;;;17.80;99.90;;;;;;4985385;28;20260;-69
2023/07/31 05:13:25;;;;;;;3.13;2.00;;;17.80;99.90;;;;;;4990754;28;20224;-70
2023/07/31 05:15:51;;;;;;;6.13;2.87;;;17.90;99.90;;;;;;4989516;28;20344;-69
2023/07/31 05:18:16;;;;;;;9.83;3.13;;;17.80;99.90;;;;;;4987800;28;20232;-69
2023/07/31 05:20:42;;;;;;;4.73;2.80;;;17.90;99.90;;;;;;4975693;28;20268;-70
2023/07/31 05:23:08;;;;;;;6.23;2.60;;;17.90;99.90;;;;;;4985770;28;20355;-69
2023/07/31 05:25:34;;;;;;;3.53;2.40;;;17.90;99.90;;;;;;4991729;28;20224;-70
2023/07/31 05:28:00;;;;;;;4.90;2.90;;;18.00;99.90;;;;;;4986145;28;20467;-70
2023/07/31 05:30:26;;;;;;;3.23;2.10;;;18.00;99.90;;;;;;5005609;28;20225;-70
2023/07/31 05:32:52;;;;;;;3.33;2.40;;;18.00;99.90;;;;;;4988500;28;20232;-70
2023/07/31 05:35:17;;;;;;;4.33;2.23;;;18.00;99.90;;;;;;4984141;28;20275;-70
2023/07/31 05:37:43;;;;;;;5.10;2.63;;;18.00;99.90;;;;;;4989027;28;20492;-70
2023/07/31 05:40:09;;;;;;;4.40;2.70;;;18.10;99.90;;;;;;4984092;28;20627;-70
2023/07/31 05:42:36;;;;;;;4.10;2.57;;;18.00;99.90;;;;;;5001393;28;21543;-70
2023/07/31 05:45:02;;;;;;;3.83;2.40;;;17.90;99.90;;;;;;5000820;28;20216;-70
2023/07/31 05:47:28;;;;;;;5.37;2.20;;;18.00;99.90;;;;;;4972915;28;20534;-71
2023/07/31 05:49:54;;;;;;;4.77;2.43;;;18.00;99.90;;;;;;5005934;28;21072;-70
2023/07/31 05:52:19;;;;;;;4.40;2.67;;;18.00;99.90;;;;;;4980734;28;20304;-70
2023/07/31 05:54:48;;;;;;;3.23;2.23;;;17.90;99.90;;;;;;4989579;28;20337;-69
2023/07/31 05:57:13;;;;;;;4.13;2.40;;;18.00;99.90;;;;;;4984505;28;20225;-70
2023/07/31 05:59:39;;;;;;;3.33;2.10;;;18.10;99.90;;;;;;4990423;28;20471;-70
2023/07/31 06:02:05;;;;;;;6.53;2.57;;;18.10;99.90;;;;;;4965487;28;20247;-70
2023/07/31 06:04:31;;;;;;;3.10;2.10;;;18.20;99.90;;;;;;4989204;28;20228;-70
2023/07/31 06:06:57;;;;;;;6.83;2.70;;;18.20;99.90;;;;;;4990907;28;20467;-70
2023/07/31 06:09:22;;;;;;;4.30;2.10;;;18.20;99.90;;;;;;4987826;28;20701;-71
2023/07/31 06:11:48;;;;;;;3.73;2.77;;;18.20;99.90;;;;;;4987587;28;20220;-70
2023/07/31 06:14:14;;;;;;;5.70;3.03;;;18.20;99.90;;;;;;4998596;28;20224;-71
2023/07/31 06:16:40;;;;;;;4.77;2.30;;;18.20;99.90;;;;;;4989647;28;20463;-70
2023/07/31 06:19:07;;;;;;;4.93;2.43;;;18.30;99.90;;;;;;5001584;28;20224;-71
2023/07/31 06:21:33;;;;;;;2.83;2.33;;;18.30;99.90;;;;;;4989159;28;20830;-70
2023/07/31 06:23:59;;;;;;;2.87;1.90;;;18.30;99.90;;;;;;4983646;28;20530;-71
2023/07/31 06:26:24;;;;;;;4.20;3.17;;;18.40;99.90;;;;;;4990720;28;21230;-70
2023/07/31 06:28:50;;;;;;;4.87;3.37;;;18.40;99.90;;;;;;5007384;28;20690;-71
2023/07/31 06:31:18;;;;;;;3.27;2.53;;;18.40;99.90;;;;;;4971681;28;20340;-71
2023/07/31 06:33:44;;;;;;;3.37;2.30;;;18.40;99.90;;;;;;4991572;28;20642;-71
2023/07/31 06:36:10;;;;;;;4.27;2.70;;;18.40;99.90;;;;;;5003722;28;20477;-71
2023/07/31 06:38:37;;;;;;;2.87;2.17;;;18.50;99.90;;;;;;4992820;28;20241;-70
2023/07/31 06:41:03;;;;;;;3.90;2.87;;;18.50;99.90;;;;;;4985931;28;20221;-70
2023/07/31 06:43:29;;;;;;;4.13;3.00;;;18.50;99.90;;;;;;4989597;28;20471;-70
2023/07/31 06:45:55;;;;;;;3.23;2.60;;;18.60;99.90;;;;;;4991951;28;20478;-70
2023/07/31 06:48:20;;;;;;;5.30;2.73;;;18.70;99.90;;;;;;4988064;28;20225;-70
2023/07/31 06:50:46;;;;;;;6.50;2.63;;;18.80;99.90;;;;;;4990307;28;20231;-70
2023/07/31 06:53:12;;;;;;;6.70;2.67;;;18.90;99.90;;;;;;5003908;28;20677;-70
2023/07/31 06:55:37;;;;;;;3.53;2.13;;;18.90;99.90;;;;;;5009114;28;20241;-70
2023/07/31 06:58:03;;;;;;;4.67;2.63;;;18.90;99.90;;;;;;4988270;28;20228;-70
2023/07/31 07:00:29;;;;;;;3.53;2.07;;;19.00;99.90;;;;;;4992881;28;20224;-70
2023/07/31 07:02:54;;;;;;;3.60;2.93;;;19.00;99.90;;;;;;4988952;28;21202;-71
2023/07/31 07:05:20;;;;;;;10.40;2.23;;;19.10;99.90;;;;;;4986862;28;20228;-70
2023/07/31 07:07:46;;;;;;;6.63;2.33;;;19.10;99.90;;;;;;4991394;28;20331;-70
2023/07/31 07:10:11;;;;;;;2.73;2.40;;;19.10;99.90;;;;;;4987816;28;20253;-71
2023/07/31 07:12:37;;;;;;;2.90;2.40;;;19.20;99.90;;;;;;4989154;28;20229;-70
2023/07/31 07:15:03;;;;;;;3.13;2.67;;;19.20;99.90;;;;;;4985631;28;20224;-71
2023/07/31 07:17:33;;;;;;;4.70;2.57;;;19.20;99.90;;;;;;4976074;28;20981;-70
2023/07/31 07:19:59;;;;;;;2.63;2.00;;;19.30;99.90;;;;;;4987735;28;20470;-71
2023/07/31 07:22:26;;;;;;;2.73;2.27;;;19.30;99.90;;;;;;4987317;28;20470;-71
2023/07/31 07:24:52;;;;;;;4.13;2.87;;;19.40;99.90;;;;;;4990674;28;21087;-70
2023/07/31 07:27:18;;;;;;;6.00;2.50;;;19.40;99.90;;;;;;4985168;28;20522;-71
2023/07/31 07:29:45;;;;;;;3.47;3.17;;;19.50;99.90;;;;;;4991790;28;20999;-71
2023/07/31 07:32:11;;;;;;;5.07;2.50;;;19.50;99.90;;;;;;4983511;28;20248;-70
2023/07/31 07:34:37;;;;;;;5.43;2.07;;;19.50;99.90;;;;;;4988902;28;20491;-71
2023/07/31 07:37:03;;;;;;;5.03;2.40;;;19.60;99.90;;;;;;4984886;28;21004;-70
2023/07/31 07:39:29;;;;;;;4.70;2.67;;;19.60;99.90;;;;;;5006279;28;20237;-70
2023/07/31 07:41:54;;;;;;;3.87;2.40;;;19.60;99.90;;;;;;4990074;28;20710;-71
2023/07/31 07:44:20;;;;;;;6.13;2.23;;;19.60;99.90;;;;;;4984095;28;20239;-71
2023/07/31 07:46:46;;;;;;;4.70;2.97;;;19.60;99.90;;;;;;4988689;28;20228;-71
2023/07/31 07:49:11;;;;;;;3.10;2.43;;;19.60;99.90;;;;;;4985978;28;20261;-70
2023/07/31 07:51:38;;;;;;;3.20;2.70;;;19.60;99.90;;;;;;4989339;28;20229;-70
2023/07/31 07:54:04;;;;;;;3.33;2.50;;;19.60;99.90;;;;;;4983040;28;20229;-71
2023/07/31 07:56:29;;;;;;;6.27;3.10;;;19.70;99.90;;;;;;4990455;28;20471;-70
2023/07/31 07:58:55;;;;;;;4.63;2.57;;;19.70;99.90;;;;;;4973641;28;20236;-71
2023/07/31 08:01:21;;;;;;;4.00;2.20;;;19.80;99.90;;;;;;4984495;28;20781;-70
2023/07/31 08:03:47;;;;;;;4.10;2.57;;;19.80;99.90;;;;;;4987983;28;20239;-70
2023/07/31 08:06:14;;;;;;;3.90;2.23;;;19.80;99.90;;;;;;4986769;28;20233;-72
2023/07/31 08:08:39;;;;;;;3.50;2.60;;;19.90;99.90;;;;;;4989729;28;21016;-70
2023/07/31 08:11:05;;;;;;;3.90;2.50;;;20.00;99.90;;;;;;4984175;28;20475;-71
2023/07/31 08:13:31;;;;;;;6.30;3.30;;;20.00;99.90;;;;;;4969568;28;20762;-72
2023/07/31 08:15:56;;;;;;;2.83;2.20;;;20.10;99.90;;;;;;4985851;28;20251;-71
2023/07/31 08:18:22;;;;;;;3.70;2.50;;;20.00;99.90;;;;;;4986769;28;20314;-69
2023/07/31 08:20:48;;;;;;;4.17;2.67;;;20.10;99.90;;;;;;4990958;28;20232;-71
2023/07/31 08:23:13;;;;;;;4.50;2.50;;;20.10;99.90;;;;;;4983674;28;20229;-71
2023/07/31 08:25:39;;;;;;;5.23;2.43;;;20.10;99.90;;;;;;4987808;28;20721;-71
2023/07/31 08:28:06;;;;;;;2.93;2.20;;;20.10;99.90;;;;;;4999986;28;20254;-70
2023/07/31 08:30:33;;;;;;;4.27;2.43;;;20.10;99.90;;;;;;4989127;28;20227;-71
2023/07/31 08:32:59;;;;;;;3.80;2.30;;;20.10;99.90;;;;;;4975546;28;20486;-70
2023/07/31 08:35:25;;;;;;;4.33;2.70;;;20.10;99.90;;;;;;4973974;28;20478;-71
2023/07/31 08:37:51;;;;;;;4.47;2.67;;;20.20;99.90;;;;;;4989931;28;20511;-72
2023/07/31 08:40:17;;;;;;;4.67;3.23;;;20.20;99.90;;;;;;4988262;28;20522;-71
2023/07/31 08:42:47;;;;;;;9.10;2.93;;;20.20;99.90;;;;;;4985960;28;20217;-71
2023/07/31 08:45:18;;;;;;;5.03;3.53;;;20.20;99.90;;;;;;4999445;28;20456;-71
2023/07/31 08:47:51;;;;;;;2.90;2.60;;;20.20;99.90;;;;;;4989958;28;20451;-70
2023/07/31 08:50:19;;;;;;;2.90;2.40;;;20.20;99.90;;;;;;4983053;28;20479;-71
2023/07/31 08:52:47;;;;;;;3.13;2.60;;;20.30;99.90;;;;;;4985017;28;20468;-70
2023/07/31 08:55:13;;;;;;;2.80;2.23;;;20.30;99.90;;;;;;4985468;28;20480;-70
2023/07/31 08:57:39;;;;;;;5.50;2.30;;;20.30;99.90;;;;;;4989346;28;20571;-72
2023/07/31 09:00:06;;;;;;;6.57;2.93;;;20.30;99.90;;;;;;4984504;28;20473;-71
2023/07/31 09:02:45;;;;;;;5.13;2.33;;;20.40;99.90;;;;;;4985337;28;20510;-70
2023/07/31 09:05:12;;;;;;;5.10;2.43;;;20.40;99.90;;;;;;4987043;28;20566;-71
2023/07/31 09:07:38;;;;;;;4.87;2.50;;;20.40;99.90;;;;;;4996925;28;20460;-71
2023/07/31 09:10:04;;;;;;;7.37;2.63;;;20.50;99.90;;;;;;4995241;28;20840;-71
2023/07/31 09:12:31;;;;;;;4.20;3.00;;;20.50;99.90;;;;;;4994540;28;20260;-70
2023/07/31 09:14:57;;;;;;;3.07;2.73;;;20.60;99.90;;;;;;4991497;28;20561;-70
2023/07/31 09:17:34;;;;;;;3.33;2.43;;;20.60;99.90;;;;;;4985402;28;20464;-70
2023/07/31 09:20:17;;;;;;;4.00;2.73;;;20.70;99.90;;;;;;4986636;28;20467;-71
2023/07/31 09:22:43;;;;;;;2.50;2.30;;;20.70;99.90;;;;;;4986690;28;20474;-71
2023/07/31 09:25:20;;;;;;;2.60;2.37;;;20.80;99.90;;;;;;4999514;28;20709;-72
2023/07/31 09:28:03;;;;;;;3.87;2.60;;;20.80;99.90;;;;;;4989008;28;20576;-71
2023/07/31 09:30:29;;;;;;;3.70;2.67;;;20.80;99.90;;;;;;4989581;28;20456;-72
2023/07/31 09:33:05;;;;;;;3.00;2.70;;;20.80;99.90;;;;;;4985672;28;20476;-71
2023/07/31 09:35:33;;;;;;;7.13;2.90;;;20.80;99.90;;;;;;4977219;28;20346;-71
2023/07/31 09:38:03;;;;;;;3.50;2.70;;;20.90;99.90;;;;;;4984423;28;20467;-70
2023/07/31 09:40:33;;;;;;;3.83;2.60;;;21.00;99.90;;;;;;4985331;28;20491;-70
2023/07/31 09:43:01;;;;;;;4.93;2.63;;;21.00;99.90;;;;;;4982537;28;20577;-70
2023/07/31 09:45:26;;;;;;;2.70;2.50;;;21.10;99.90;;;;;;4958799;28;21489;-71
2023/07/31 09:47:52;;;;;;;4.13;3.00;;;21.30;99.90;;;;;;4990395;28;20566;-71
2023/07/31 09:50:21;;;;;;;5.90;2.97;;;21.40;99.90;;;;;;4971949;28;20302;-71
2023/07/31 09:52:47;;;;;;;3.47;2.60;;;21.40;99.90;;;;;;4983226;28;20259;-71
2023/07/31 09:55:12;;;;;;;3.03;2.50;;;21.40;99.90;;;;;;4985174;28;20587;-71
2023/07/31 09:57:45;;;;;;;3.13;2.83;;;21.40;99.90;;;;;;4989735;28;20260;-71
2023/07/31 10:00:15;;;;;;;3.07;2.60;;;21.50;99.90;;;;;;4985209;28;20213;-70
2023/07/31 10:02:42;;;;;;;2.27;2.07;;;21.50;99.90;;;;;;4986797;28;20483;-70
2023/07/31 10:05:08;;;;;;;3.70;2.60;;;21.40;99.90;;;;;;4981942;28;20471;-70
2023/07/31 10:07:39;;;;;;;4.50;2.50;;;21.40;99.90;;;;;;4982017;28;20463;-71
2023/07/31 10:10:08;;;;;;;3.37;2.93;;;21.40;99.90;;;;;;4982714;28;20225;-70
2023/07/31 10:12:34;;;;;;;4.63;3.20;;;21.50;99.90;;;;;;4967598;28;20471;-71
2023/07/31 10:15:00;;;;;;;3.37;2.80;;;21.50;99.90;;;;;;4999835;28;20463;-71
2023/07/31 10:17:26;;;;;;;6.73;3.17;;;21.50;99.90;;;;;;4986303;28;20478;-70
2023/07/31 10:19:53;;;;;;;5.20;2.93;;;21.50;99.90;;;;;;4985294;28;20225;-71
2023/07/31 10:22:22;;;;;;;5.17;2.60;;;21.50;99.90;;;;;;4980619;28;20550;-71
2023/07/31 10:24:49;;;;;;;6.03;2.43;;;21.70;99.90;;;;;;4986915;28;20471;-70
2023/07/31 10:27:16;;;;;;;6.67;2.90;;;21.70;99.90;;;;;;4983152;28;20463;-70
2023/07/31 10:29:43;;;;;;;5.00;3.40;;;21.70;99.90;;;;;;4987722;28;20474;-72
2023/07/31 10:32:11;;;;;;;11.03;3.40;;;21.80;99.90;;;;;;4981144;28;20473;-69
2023/07/31 10:34:39;;;;;;;4.20;2.80;;;21.80;99.90;;;;;;4983953;28;20554;-71
2023/07/31 10:37:26;;;;;;;7.70;3.17;;;21.80;99.90;;;;;;4998277;28;20460;-71
2023/07/31 10:40:25;;;;;;;5.53;2.50;;;21.80;99.90;;;;;;5002835;28;20495;-71
2023/07/31 10:42:53;;;;;;;5.53;3.10;;;21.80;99.90;;;;;;4980476;28;20471;-70
2023/07/31 10:45:37;;;;;;;5.17;3.20;;;21.90;99.90;;;;;;4979743;28;20444;-71
2023/07/31 10:48:06;;;;;;;4.93;2.60;;;21.90;99.90;;;;;;4977918;28;20506;-71
2023/07/31 10:50:53;;;;;;;4.37;2.80;;;21.90;99.90;;;;;;4987203;28;20475;-71
2023/07/31 10:53:30;;;;;;;4.13;3.00;;;21.90;99.90;;;;;;4979748;28;20579;-72
2023/07/31 10:56:00;;;;;;;4.93;2.20;;;22.00;99.90;;;;;;4989470;28;20981;-70
2023/07/31 10:58:26;;;;;;;5.03;3.70;;;22.10;99.90;;;;;;4991634;28;20475;-71
2023/07/31 11:00:57;;;;;;;4.30;3.20;;;22.10;99.90;;;;;;4995789;28;20454;-71
2023/07/31 11:03:26;;;;;;;4.10;2.80;;;22.10;99.90;;;;;;4990117;28;21652;-72
2023/07/31 11:05:58;;;;;;;4.27;3.00;;;22.10;99.90;;;;;;4992801;28;20496;-72
2023/07/31 11:08:35;;;;;;;3.60;2.90;;;22.20;99.90;;;;;;4992767;28;20463;-70
2023/07/31 11:11:01;;;;;;;7.87;2.93;;;22.20;99.90;;;;;;4981293;28;20489;-72
2023/07/31 11:13:30;;;;;;;4.17;3.07;;;22.50;99.90;;;;;;4993993;28;20509;-71
2023/07/31 11:15:56;;;;;;;3.00;2.70;;;22.60;99.90;;;;;;4999759;28;20614;-71
2023/07/31 11:18:22;;;;;;;3.13;2.83;;;22.80;99.90;;;;;;4996697;28;20594;-71
2023/07/31 11:20:47;;;;;;;3.80;3.40;;;22.90;99.90;;;;;;4996665;28;20330;-71
2023/07/31 11:23:17;;;;;;;5.07;3.30;;;22.90;99.90;;;;;;4993479;28;21685;-71
2023/07/31 11:25:43;;;;;;;3.90;3.00;;;23.00;99.90;;;;;;4995789;28;20278;-71
2023/07/31 11:28:11;;;;;;;3.30;3.00;;;23.20;99.90;;;;;;4997052;28;20470;-73
2023/07/31 11:30:37;;;;;;;5.13;2.60;;;23.20;99.90;;;;;;4996812;28;20523;-71
2023/07/31 11:33:04;;;;;;;5.30;3.63;;;23.20;99.90;;;;;;4994022;28;22013;-72
2023/07/31 11:35:35;;;;;;;3.00;2.70;;;23.30;99.90;;;;;;4997569;28;22032;-72
2023/07/31 11:38:01;;;;;;;3.67;3.17;;;23.40;99.90;;;;;;4996406;28;20545;-72
2023/07/31 11:40:30;;;;;;;4.23;3.13;;;23.50;99.90;;;;;;4995425;28;20454;-72
2023/07/31 11:42:57;;;;;;;3.47;3.07;;;23.50;99.90;;;;;;4987002;28;21302;-71
2023/07/31 11:45:27;;;;;;;4.10;2.90;;;23.60;99.90;;;;;;4997130;28;20470;-71
2023/07/31 11:47:54;;;;;;;3.00;2.60;;;23.60;99.90;;;;;;4993825;28;21832;-71
2023/07/31 11:50:20;;;;;;;4.30;2.83;;;23.60;99.90;;;;;;4995708;28;20450;-72
2023/07/31 11:52:49;;;;;;;4.03;2.40;;;23.60;99.90;;;;;;4994475;28;20586;-71
2023/07/31 11:55:16;;;;;;;4.07;2.83;;;23.50;99.90;;;;;;4994534;28;20265;-72
2023/07/31 11:57:43;;;;;;;5.60;3.00;;;23.40;99.90;;;;;;4980244;28;20508;-71
2023/07/31 12:00:11;;;;;;;3.57;2.90;;;23.30;99.90;;;;;;4996084;28;22123;-73
2023/07/31 12:02:39;;;;;;;4.03;2.67;;;23.30;99.90;;;;;;4991171;28;20467;-71
2023/07/31 12:05:06;;;;;;;3.43;2.73;;;23.20;99.90;;;;;;4997532;28;20455;-72
2023/07/31 12:07:55;;;;;;;3.93;2.80;;;23.20;99.90;;;;;;4995935;28;20553;-72
2023/07/31 12:10:28;;;;;;;3.90;2.77;;;23.10;99.90;;;;;;4996001;28;20467;-72
2023/07/31 12:12:58;;;;;;;3.97;2.90;;;23.10;99.90;;;;;;4993357;28;20464;-72
2023/07/31 12:15:34;;;;;;;3.40;3.10;;;23.00;99.90;;;;;;4997243;28;20454;-73
2023/07/31 12:18:03;;;;;;;5.73;2.63;;;23.00;99.90;;;;;;5011230;28;20469;-71
2023/07/31 12:20:30;;;;;;;10.03;2.83;;;23.00;99.90;;;;;;4993856;28;20464;-72
2023/07/31 12:22:57;;;;;;;3.83;3.23;;;23.00;99.90;;;;;;4994496;28;20471;-71
2023/07/31 12:25:28;;;;;;;4.17;3.20;;;23.00;99.90;;;;;;4994521;28;20549;-72
2023/07/31 12:27:53;;;;;;;5.57;2.40;;;23.00;99.90;;;;;;5009812;28;20470;-72
2023/07/31 12:30:35;;;;;;;2.93;2.30;;;23.00;99.90;;;;;;4995560;28;20466;-72
2023/07/31 12:33:13;;;;;;;4.67;3.60;;;23.20;99.90;;;;;;4991541;28;20851;-72
2023/07/31 12:35:41;;;;;;;4.63;2.70;;;23.20;99.90;;;;;;4993786;28;20472;-72
2023/07/31 12:38:07;;;;;;;3.33;2.83;;;23.40;99.90;;;;;;4995616;28;20559;-72
2023/07/31 12:40:35;;;;;;;3.33;3.03;;;23.60;99.90;;;;;;5010981;28;20538;-72
2023/07/31 12:43:03;;;;;;;4.37;3.20;;;23.80;99.90;;;;;;4992638;28;20357;-71
2023/07/31 12:45:29;;;;;;;3.57;2.73;;;23.90;99.90;;;;;;4993211;28;20473;-72